createdAt,value
2018-05-04T00:00:14.378Z,1018.63
2018-05-04T00:01:13.670Z,1018.58
2018-05-04T00:02:13.699Z,1018.64
2018-05-04T00:03:14.380Z,1018.62
2018-05-04T00:04:13.585Z,1018.65
2018-05-04T00:05:13.555Z,1018.66
2018-05-04T00:06:13.514Z,1018.68
2018-05-04T00:07:13.536Z,1018.66
2018-05-04T00:08:13.458Z,1018.66
2018-05-04T00:09:13.431Z,1018.66
2018-05-04T00:10:13.392Z,1018.67
2018-05-04T00:11:13.370Z,1018.68
2018-05-04T00:12:13.384Z,1018.63
2018-05-04T00:13:13.300Z,1018.64
2018-05-04T00:14:13.274Z,1018.63
2018-05-04T00:15:13.881Z,1018.64
2018-05-04T00:16:13.218Z,1018.60
2018-05-04T00:17:13.438Z,1018.64
2018-05-04T00:18:13.195Z,1018.64
2018-05-04T00:19:13.888Z,1018.64
2018-05-04T00:20:13.096Z,1018.64
2018-05-04T00:21:13.061Z,1018.69
2018-05-04T00:22:13.883Z,1018.64
2018-05-04T00:23:13.049Z,1018.65
2018-05-04T00:24:12.986Z,1018.71
2018-05-04T00:25:13.881Z,1018.67
2018-05-04T00:26:12.915Z,1018.70
2018-05-04T00:27:12.882Z,1018.68
2018-05-04T00:28:12.907Z,1018.75
2018-05-04T00:29:12.873Z,1018.73
2018-05-04T00:30:12.789Z,1018.73
2018-05-04T00:31:12.763Z,1018.71
2018-05-04T00:32:12.734Z,1018.70
2018-05-04T00:33:12.748Z,1018.76
2018-05-04T00:34:13.382Z,1018.71
2018-05-04T00:35:12.695Z,1018.72
2018-05-04T00:36:12.619Z,1018.71
2018-05-04T00:37:12.582Z,1018.74
2018-05-04T00:38:12.931Z,1018.75
2018-05-04T00:39:12.528Z,1018.75
2018-05-04T00:40:12.541Z,1018.76
2018-05-04T00:41:13.386Z,1018.76
2018-05-04T00:42:12.439Z,1018.79
2018-05-04T00:43:12.449Z,1018.82
2018-05-04T00:44:12.882Z,1018.83
2018-05-04T00:45:12.385Z,1018.87
2018-05-04T00:46:12.895Z,1018.91
2018-05-04T00:47:12.284Z,1018.95
2018-05-04T00:48:12.256Z,1018.98
2018-05-04T00:49:12.443Z,1018.99
2018-05-04T00:50:12.279Z,1018.99
2018-05-04T00:51:12.168Z,1018.99
2018-05-04T00:52:12.894Z,1018.99
2018-05-04T00:53:12.110Z,1019.00
2018-05-04T00:54:12.070Z,1018.99
2018-05-04T00:55:12.501Z,1019.01
2018-05-04T00:56:12.006Z,1019.02
2018-05-04T00:57:12.890Z,1019.05
2018-05-04T00:58:12.005Z,1019.03
2018-05-04T00:59:11.920Z,1019.04
2018-05-04T01:00:11.893Z,1019.04
2018-05-04T01:01:11.858Z,1019.06
2018-05-04T01:02:11.830Z,1019.06
2018-05-04T01:03:11.841Z,1019.07
2018-05-04T01:04:12.384Z,1019.07
2018-05-04T01:05:11.760Z,1019.06
2018-05-04T01:06:11.711Z,1019.03
2018-05-04T01:07:11.714Z,1019.02
2018-05-04T01:08:11.652Z,1019.07
2018-05-04T01:09:14.392Z,1019.07
2018-05-04T01:10:11.591Z,1019.07
2018-05-04T01:11:11.602Z,1019.08
2018-05-04T01:12:11.566Z,1019.09
2018-05-04T01:13:12.416Z,1019.10
2018-05-04T01:14:11.468Z,1019.11
2018-05-04T01:15:11.439Z,1019.09
2018-05-04T01:16:11.443Z,1019.09
2018-05-04T01:17:11.440Z,1019.09
2018-05-04T01:18:11.353Z,1019.12
2018-05-04T01:19:11.317Z,1019.09
2018-05-04T01:20:11.291Z,1019.11
2018-05-04T01:21:11.301Z,1019.16
2018-05-04T01:22:11.221Z,1019.19
2018-05-04T01:23:11.192Z,1019.16
2018-05-04T01:24:11.165Z,1019.18
2018-05-04T01:25:11.890Z,1019.18
2018-05-04T01:26:11.152Z,1019.20
2018-05-04T01:27:11.068Z,1019.22
2018-05-04T01:28:11.913Z,1019.22
2018-05-04T01:29:11.005Z,1019.25
2018-05-04T01:30:12.945Z,1019.22
2018-05-04T01:31:10.962Z,1019.28
2018-05-04T01:32:10.913Z,1019.28
2018-05-04T01:33:10.890Z,1019.30
2018-05-04T01:34:10.896Z,1019.30
2018-05-04T01:35:10.826Z,1019.29
2018-05-04T01:36:10.794Z,1019.31
2018-05-04T01:37:10.761Z,1019.31
2018-05-04T01:38:11.393Z,1019.32
2018-05-04T01:39:10.760Z,1019.32
2018-05-04T01:40:10.708Z,1019.34
2018-05-04T01:41:11.389Z,1019.34
2018-05-04T01:42:10.652Z,1019.40
2018-05-04T01:43:10.581Z,1019.37
2018-05-04T01:44:11.389Z,1019.39
2018-05-04T01:45:10.563Z,1019.43
2018-05-04T01:46:11.395Z,1019.42
2018-05-04T01:47:10.463Z,1019.35
2018-05-04T01:48:10.434Z,1019.38
2018-05-04T01:49:10.952Z,1019.37
2018-05-04T01:50:10.408Z,1019.38
2018-05-04T01:51:10.334Z,1019.37
2018-05-04T01:52:10.313Z,1019.38
2018-05-04T01:53:11.137Z,1019.39
2018-05-04T01:54:10.293Z,1019.43
2018-05-04T01:55:10.231Z,1019.44
2018-05-04T01:56:10.439Z,1019.43
2018-05-04T01:57:10.159Z,1019.40
2018-05-04T01:58:10.124Z,1019.44
2018-05-04T01:59:10.896Z,1019.39
2018-05-04T02:00:10.086Z,1019.40
2018-05-04T02:01:10.442Z,1019.40
2018-05-04T02:02:10.000Z,1019.43
2018-05-04T02:03:10.890Z,1019.43
2018-05-04T02:04:09.952Z,1019.42
2018-05-04T02:05:10.900Z,1019.44
2018-05-04T02:06:09.918Z,1019.43
2018-05-04T02:07:09.847Z,1019.48
2018-05-04T02:08:10.397Z,1019.50
2018-05-04T02:09:09.829Z,1019.52
2018-05-04T02:10:10.414Z,1019.52
2018-05-04T02:11:09.722Z,1019.51
2018-05-04T02:12:09.695Z,1019.54
2018-05-04T02:13:09.660Z,1019.54
2018-05-04T02:14:09.678Z,1019.47
2018-05-04T02:15:09.647Z,1019.48
2018-05-04T02:16:09.567Z,1019.48
2018-05-04T02:17:10.397Z,1019.50
2018-05-04T02:18:09.511Z,1019.48
2018-05-04T02:19:09.528Z,1019.45
2018-05-04T02:20:09.445Z,1019.50
2018-05-04T02:21:09.419Z,1019.49
2018-05-04T02:22:09.893Z,1019.50
2018-05-04T02:23:09.396Z,1019.51
2018-05-04T02:24:09.373Z,1019.53
2018-05-04T02:25:09.890Z,1019.54
2018-05-04T02:26:09.261Z,1019.53
2018-05-04T02:27:09.895Z,1019.55
2018-05-04T02:28:09.200Z,1019.54
2018-05-04T02:29:09.216Z,1019.59
2018-05-04T02:30:09.893Z,1019.56
2018-05-04T02:31:09.113Z,1019.64
2018-05-04T02:32:09.073Z,1019.62
2018-05-04T02:33:09.045Z,1019.62
2018-05-04T02:34:09.939Z,1019.65
2018-05-04T02:35:09.049Z,1019.59
2018-05-04T02:36:09.892Z,1019.59
2018-05-04T02:37:08.919Z,1019.60
2018-05-04T02:38:08.898Z,1019.60
2018-05-04T02:39:08.858Z,1019.57
2018-05-04T02:40:08.937Z,1019.58
2018-05-04T02:41:08.807Z,1019.60
2018-05-04T02:42:09.400Z,1019.62
2018-05-04T02:43:08.741Z,1019.68
2018-05-04T02:44:08.746Z,1019.59
2018-05-04T02:45:09.391Z,1019.60
2018-05-04T02:46:08.639Z,1019.63
2018-05-04T02:47:08.612Z,1019.63
2018-05-04T02:48:08.584Z,1019.57
2018-05-04T02:49:09.051Z,1019.60
2018-05-04T02:50:08.514Z,1019.62
2018-05-04T02:51:08.486Z,1019.63
2018-05-04T02:52:08.456Z,1019.63
2018-05-04T02:53:08.424Z,1019.61
2018-05-04T02:54:08.442Z,1019.61
2018-05-04T02:55:08.368Z,1019.59
2018-05-04T02:56:08.440Z,1019.61
2018-05-04T02:57:08.300Z,1019.63
2018-05-04T02:58:08.266Z,1019.64
2018-05-04T02:59:08.944Z,1019.65
2018-05-04T03:00:08.246Z,1019.66
2018-05-04T03:01:08.173Z,1019.65
2018-05-04T03:02:08.440Z,1019.68
2018-05-04T03:03:08.119Z,1019.69
2018-05-04T03:04:08.125Z,1019.69
2018-05-04T03:05:08.437Z,1019.75
2018-05-04T03:06:08.017Z,1019.74
2018-05-04T03:07:08.028Z,1019.75
2018-05-04T03:08:08.899Z,1019.75
2018-05-04T03:09:07.959Z,1019.72
2018-05-04T03:10:07.894Z,1019.79
2018-05-04T03:11:07.871Z,1019.81
2018-05-04T03:12:07.955Z,1019.77
2018-05-04T03:13:07.825Z,1019.83
2018-05-04T03:14:07.768Z,1019.81
2018-05-04T03:15:07.740Z,1019.83
2018-05-04T03:16:07.709Z,1019.81
2018-05-04T03:17:07.709Z,1019.86
2018-05-04T03:18:07.674Z,1019.85
2018-05-04T03:19:08.402Z,1019.82
2018-05-04T03:20:07.589Z,1019.83
2018-05-04T03:21:07.560Z,1019.83
2018-05-04T03:22:07.571Z,1019.85
2018-05-04T03:23:07.486Z,1019.85
2018-05-04T03:24:07.458Z,1019.84
2018-05-04T03:25:07.424Z,1019.83
2018-05-04T03:26:07.393Z,1019.83
2018-05-04T03:27:07.425Z,1019.83
2018-05-04T03:28:07.372Z,1019.82
2018-05-04T03:29:07.296Z,1019.83
2018-05-04T03:30:07.270Z,1019.82
2018-05-04T03:31:07.900Z,1019.77
2018-05-04T03:32:07.207Z,1019.77
2018-05-04T03:33:07.215Z,1019.83
2018-05-04T03:34:07.142Z,1019.82
2018-05-04T03:35:07.120Z,1019.84
2018-05-04T03:36:07.078Z,1019.85
2018-05-04T03:37:07.055Z,1019.89
2018-05-04T03:38:07.074Z,1019.91
2018-05-04T03:39:06.987Z,1019.88
2018-05-04T03:40:06.954Z,1019.85
2018-05-04T03:41:06.931Z,1019.86
2018-05-04T03:42:06.889Z,1019.86
2018-05-04T03:43:06.912Z,1019.85
2018-05-04T03:44:06.826Z,1019.88
2018-05-04T03:45:06.808Z,1019.87
2018-05-04T03:46:06.765Z,1019.86
2018-05-04T03:47:06.730Z,1019.85
2018-05-04T03:48:06.749Z,1019.85
2018-05-04T03:49:06.680Z,1019.81
2018-05-04T03:50:06.644Z,1019.82
2018-05-04T03:51:06.609Z,1019.78
2018-05-04T03:52:06.605Z,1019.81
2018-05-04T03:53:06.607Z,1019.78
2018-05-04T03:54:07.400Z,1019.81
2018-05-04T03:55:06.498Z,1019.78
2018-05-04T03:56:06.448Z,1019.78
2018-05-04T03:57:06.429Z,1019.73
2018-05-04T03:58:06.460Z,1019.78
2018-05-04T03:59:06.354Z,1019.78
2018-05-04T04:00:06.322Z,1019.78
2018-05-04T04:01:06.298Z,1019.75
2018-05-04T04:02:06.261Z,1019.74
2018-05-04T04:03:06.277Z,1019.68
2018-05-04T04:04:06.196Z,1019.66
2018-05-04T04:05:06.233Z,1019.68
2018-05-04T04:06:06.137Z,1019.69
2018-05-04T04:07:06.105Z,1019.70
2018-05-04T04:08:06.077Z,1019.71
2018-05-04T04:09:06.041Z,1019.74
2018-05-04T04:10:06.449Z,1019.78
2018-05-04T04:11:05.979Z,1019.75
2018-05-04T04:12:05.953Z,1019.77
2018-05-04T04:13:05.919Z,1019.79
2018-05-04T04:14:05.932Z,1019.77
2018-05-04T04:15:05.856Z,1019.74
2018-05-04T04:16:05.865Z,1019.72
2018-05-04T04:17:05.795Z,1019.75
2018-05-04T04:18:05.794Z,1019.70
2018-05-04T04:19:05.736Z,1019.73
2018-05-04T04:20:05.745Z,1019.73
2018-05-04T04:21:05.717Z,1019.75
2018-05-04T04:22:05.642Z,1019.72
2018-05-04T04:23:05.613Z,1019.75
2018-05-04T04:24:05.582Z,1019.76
2018-05-04T04:25:05.556Z,1019.74
2018-05-04T04:26:05.556Z,1019.71
2018-05-04T04:27:05.526Z,1019.72
2018-05-04T04:28:05.496Z,1019.69
2018-05-04T04:29:05.428Z,1019.72
2018-05-04T04:30:05.400Z,1019.70
2018-05-04T04:31:05.404Z,1019.72
2018-05-04T04:32:05.382Z,1019.72
2018-05-04T04:33:05.307Z,1019.75
2018-05-04T04:34:05.276Z,1019.74
2018-05-04T04:35:05.251Z,1019.72
2018-05-04T04:36:05.812Z,1019.75
2018-05-04T04:37:05.224Z,1019.73
2018-05-04T04:38:05.187Z,1019.74
2018-05-04T04:39:05.124Z,1019.67
2018-05-04T04:40:05.087Z,1019.72
2018-05-04T04:41:05.064Z,1019.72
2018-05-04T04:42:05.907Z,1019.71
2018-05-04T04:43:05.045Z,1019.70
2018-05-04T04:44:04.966Z,1019.69
2018-05-04T04:45:04.943Z,1019.70
2018-05-04T04:46:05.899Z,1019.71
2018-05-04T04:47:04.884Z,1019.74
2018-05-04T04:48:04.888Z,1019.75
2018-05-04T04:49:04.822Z,1019.72
2018-05-04T04:50:04.796Z,1019.74
2018-05-04T04:51:04.761Z,1019.76
2018-05-04T04:52:04.734Z,1019.79
2018-05-04T04:53:04.733Z,1019.78
2018-05-04T04:54:04.665Z,1019.79
2018-05-04T04:55:04.638Z,1019.75
2018-05-04T04:56:04.649Z,1019.78
2018-05-04T04:57:04.628Z,1019.78
2018-05-04T04:58:04.543Z,1019.77
2018-05-04T04:59:04.516Z,1019.81
2018-05-04T05:00:04.499Z,1019.82
2018-05-04T05:01:04.507Z,1019.86
2018-05-04T05:02:04.425Z,1019.84
2018-05-04T05:03:04.442Z,1019.89
2018-05-04T05:04:04.363Z,1019.91
2018-05-04T05:05:04.337Z,1019.92
2018-05-04T05:06:04.307Z,1019.91
2018-05-04T05:07:04.282Z,1019.90
2018-05-04T05:08:04.299Z,1019.90
2018-05-04T05:09:04.258Z,1019.86
2018-05-04T05:10:04.185Z,1019.92
2018-05-04T05:11:04.163Z,1019.95
2018-05-04T05:12:04.128Z,1019.94
2018-05-04T05:13:04.184Z,1019.95
2018-05-04T05:14:04.076Z,1019.97
2018-05-04T05:15:04.041Z,1020.01
2018-05-04T05:16:04.017Z,1020.07
2018-05-04T05:17:03.983Z,1020.04
2018-05-04T05:18:04.007Z,1020.08
2018-05-04T05:19:03.927Z,1020.08
2018-05-04T05:20:03.933Z,1020.07
2018-05-04T05:21:03.875Z,1020.05
2018-05-04T05:22:03.879Z,1020.06
2018-05-04T05:23:03.811Z,1020.04
2018-05-04T05:24:03.793Z,1020.02
2018-05-04T05:25:03.807Z,1019.99
2018-05-04T05:26:03.722Z,1019.97
2018-05-04T05:27:03.695Z,1020.00
2018-05-04T05:28:03.673Z,1020.00
2018-05-04T05:29:03.637Z,1020.01
2018-05-04T05:30:03.649Z,1020.01
2018-05-04T05:31:03.580Z,1020.04
2018-05-04T05:32:03.547Z,1020.00
2018-05-04T05:33:03.523Z,1020.03
2018-05-04T05:34:03.496Z,1020.04
2018-05-04T05:35:03.600Z,1020.05
2018-05-04T05:36:03.429Z,1020.07
2018-05-04T05:37:03.521Z,1020.11
2018-05-04T05:38:03.447Z,1020.12
2018-05-04T05:39:03.366Z,1020.13
2018-05-04T05:40:03.360Z,1020.12
2018-05-04T05:41:03.293Z,1020.11
2018-05-04T05:42:03.262Z,1020.16
2018-05-04T05:43:03.233Z,1020.21
2018-05-04T05:44:03.214Z,1020.21
2018-05-04T05:45:03.237Z,1020.25
2018-05-04T05:46:03.148Z,1020.24
2018-05-04T05:47:03.121Z,1020.26
2018-05-04T05:48:03.088Z,1020.27
2018-05-04T05:49:03.060Z,1020.31
2018-05-04T05:50:03.075Z,1020.32
2018-05-04T05:51:03.007Z,1020.40
2018-05-04T05:52:03.029Z,1020.41
2018-05-04T05:53:02.944Z,1020.39
2018-05-04T05:54:02.917Z,1020.37
2018-05-04T05:55:02.897Z,1020.35
2018-05-04T05:56:02.860Z,1020.38
2018-05-04T05:57:02.876Z,1020.36
2018-05-04T05:58:02.816Z,1020.38
2018-05-04T05:59:02.773Z,1020.39
2018-05-04T06:00:02.744Z,1020.38
2018-05-04T06:01:02.774Z,1020.41
2018-05-04T06:02:02.692Z,1020.45
2018-05-04T06:03:03.417Z,1020.43
2018-05-04T06:04:02.695Z,1020.44
2018-05-04T06:05:02.606Z,1020.49
2018-05-04T06:06:02.576Z,1020.49
2018-05-04T06:07:02.604Z,1020.48
2018-05-04T06:08:02.518Z,1020.49
2018-05-04T06:09:02.494Z,1020.52
2018-05-04T06:10:02.516Z,1020.46
2018-05-04T06:11:02.435Z,1020.52
2018-05-04T06:12:02.412Z,1020.51
2018-05-04T06:13:02.377Z,1020.51
2018-05-04T06:14:02.352Z,1020.53
2018-05-04T06:15:02.441Z,1020.53
2018-05-04T06:16:02.296Z,1020.53
2018-05-04T06:17:02.264Z,1020.56
2018-05-04T06:18:02.239Z,1020.59
2018-05-04T06:19:02.221Z,1020.60
2018-05-04T06:20:02.219Z,1020.57
2018-05-04T06:21:02.156Z,1020.60
2018-05-04T06:22:02.196Z,1020.62
2018-05-04T06:23:02.153Z,1020.64
2018-05-04T06:24:02.069Z,1020.63
2018-05-04T06:25:02.071Z,1020.62
2018-05-04T06:26:02.020Z,1020.61
2018-05-04T06:27:02.030Z,1020.59
2018-05-04T06:28:01.960Z,1020.58
2018-05-04T06:29:01.936Z,1020.60
2018-05-04T06:30:01.903Z,1020.61
2018-05-04T06:31:01.879Z,1020.61
2018-05-04T06:32:01.914Z,1020.70
2018-05-04T06:33:01.823Z,1020.64
2018-05-04T06:34:01.801Z,1020.67
2018-05-04T06:35:01.765Z,1020.64
2018-05-04T06:36:01.735Z,1020.66
2018-05-04T06:37:01.773Z,1020.59
2018-05-04T06:38:01.694Z,1020.65
2018-05-04T06:39:01.653Z,1020.64
2018-05-04T06:40:01.623Z,1020.66
2018-05-04T06:41:01.619Z,1020.70
2018-05-04T06:42:01.616Z,1020.68
2018-05-04T06:43:01.587Z,1020.70
2018-05-04T06:44:01.520Z,1020.71
2018-05-04T06:45:01.488Z,1020.73
2018-05-04T06:46:01.461Z,1020.73
2018-05-04T06:47:01.471Z,1020.73
2018-05-04T06:48:01.466Z,1020.80
2018-05-04T06:49:01.445Z,1020.83
2018-05-04T06:50:01.366Z,1020.81
2018-05-04T06:51:01.325Z,1020.80
2018-05-04T06:52:01.329Z,1020.82
2018-05-04T06:53:01.315Z,1020.84
2018-05-04T06:54:01.250Z,1020.84
2018-05-04T06:55:01.219Z,1020.83
2018-05-04T06:56:01.191Z,1020.80
2018-05-04T06:57:01.160Z,1020.84
2018-05-04T06:58:01.183Z,1020.85
2018-05-04T06:59:01.109Z,1020.84
2018-05-04T07:00:01.087Z,1020.90
2018-05-04T07:01:01.057Z,1020.92
2018-05-04T07:02:01.026Z,1020.94
2018-05-04T07:03:01.034Z,1020.93
2018-05-04T07:04:01.000Z,1020.97
2018-05-04T07:05:00.947Z,1020.95
2018-05-04T07:06:00.920Z,1020.96
2018-05-04T07:07:00.892Z,1020.98
2018-05-04T07:08:00.864Z,1020.96
2018-05-04T07:09:00.919Z,1020.97
2018-05-04T07:10:00.810Z,1020.95
2018-05-04T07:11:00.781Z,1020.95
2018-05-04T07:12:00.753Z,1020.95
2018-05-04T07:13:00.726Z,1020.97
2018-05-04T07:14:00.765Z,1020.98
2018-05-04T07:15:00.702Z,1021.01
2018-05-04T07:16:00.647Z,1021.02
2018-05-04T07:17:00.623Z,1021.00
2018-05-04T07:18:00.633Z,1021.02
2018-05-04T07:19:00.567Z,1020.99
2018-05-04T07:20:00.584Z,1021.00
2018-05-04T07:21:00.559Z,1021.01
2018-05-04T07:22:00.527Z,1021.03
2018-05-04T07:23:00.463Z,1021.03
2018-05-04T07:24:00.430Z,1021.04
2018-05-04T07:25:00.450Z,1021.03
2018-05-04T07:26:00.375Z,1021.04
2018-05-04T07:27:00.364Z,1021.02
2018-05-04T07:28:00.339Z,1021.01
2018-05-04T07:29:00.319Z,1020.98
2018-05-04T07:30:00.329Z,1020.98
2018-05-04T07:31:00.288Z,1020.99
2018-05-04T07:32:00.236Z,1020.99
2018-05-04T07:33:00.196Z,1020.97
2018-05-04T07:34:00.164Z,1021.00
2018-05-04T07:35:00.138Z,1020.98
2018-05-04T07:36:00.185Z,1021.01
2018-05-04T07:37:00.096Z,1021.01
2018-05-04T07:38:00.054Z,1021.06
2018-05-04T07:39:00.029Z,1021.05
2018-05-04T07:40:00.003Z,1021.05
2018-05-04T07:41:00.048Z,1021.07
2018-05-04T07:42:00.049Z,1021.08
2018-05-04T07:42:59.924Z,1021.02
2018-05-04T07:43:59.893Z,1021.04
2018-05-04T07:44:59.882Z,1021.05
2018-05-04T07:45:59.872Z,1021.07
2018-05-04T07:46:59.876Z,1021.11
2018-05-04T07:47:59.791Z,1021.09
2018-05-04T07:48:59.769Z,1021.12
2018-05-04T07:49:59.740Z,1021.10
2018-05-04T07:50:59.725Z,1021.13
2018-05-04T07:51:59.719Z,1021.08
2018-05-04T07:52:59.655Z,1021.08
2018-05-04T07:53:59.630Z,1021.06
2018-05-04T07:54:59.608Z,1021.03
2018-05-04T07:55:59.574Z,1021.05
2018-05-04T07:56:59.605Z,1020.97
2018-05-04T07:57:59.526Z,1021.02
2018-05-04T07:58:59.498Z,1020.99
2018-05-04T07:59:59.491Z,1020.96
2018-05-04T08:00:59.442Z,1021.01
2018-05-04T08:01:59.460Z,1021.08
2018-05-04T08:02:59.457Z,1021.08
2018-05-04T08:03:59.372Z,1021.04
2018-05-04T08:04:59.339Z,1021.00
2018-05-04T08:05:59.311Z,1021.05
2018-05-04T08:06:59.335Z,1021.07
2018-05-04T08:07:59.260Z,1021.08
2018-05-04T08:08:59.239Z,1021.11
2018-05-04T08:09:59.207Z,1021.14
2018-05-04T08:10:59.177Z,1021.14
2018-05-04T08:11:59.207Z,1021.15
2018-05-04T08:12:59.128Z,1021.12
2018-05-04T08:13:59.141Z,1021.13
2018-05-04T08:14:59.081Z,1021.14
2018-05-04T08:15:59.051Z,1021.17
2018-05-04T08:16:59.028Z,1021.15
2018-05-04T08:17:59.000Z,1021.21
2018-05-04T08:18:59.031Z,1021.28
2018-05-04T08:19:59.039Z,1021.20
2018-05-04T08:20:58.922Z,1021.21
2018-05-04T08:21:58.894Z,1021.16
2018-05-04T08:22:58.862Z,1021.15
2018-05-04T08:23:58.889Z,1021.16
2018-05-04T08:24:58.815Z,1021.07
2018-05-04T08:25:58.786Z,1021.04
2018-05-04T08:26:58.764Z,1021.07
2018-05-04T08:27:58.734Z,1021.12
2018-05-04T08:28:58.745Z,1021.17
2018-05-04T08:29:58.687Z,1021.10
2018-05-04T08:30:58.653Z,1021.06
2018-05-04T08:31:58.692Z,1021.15
2018-05-04T08:32:58.614Z,1021.13
2018-05-04T08:33:58.616Z,1021.14
2018-05-04T08:34:58.595Z,1021.12
2018-05-04T08:35:58.525Z,1021.20
2018-05-04T08:36:58.498Z,1021.11
2018-05-04T08:37:58.521Z,1021.10
2018-05-04T08:38:58.446Z,1021.07
2018-05-04T08:39:58.421Z,1021.07
2018-05-04T08:40:58.460Z,1021.04
2018-05-04T08:41:58.365Z,1021.08
2018-05-04T08:42:58.418Z,1021.05
2018-05-04T08:43:58.330Z,1021.06
2018-05-04T08:44:58.290Z,1021.04
2018-05-04T08:45:58.304Z,1021.06
2018-05-04T08:46:58.238Z,1020.99
2018-05-04T08:47:58.207Z,1021.09
2018-05-04T08:48:58.247Z,1021.04
2018-05-04T08:49:58.156Z,1021.03
2018-05-04T08:50:58.215Z,1021.07
2018-05-04T08:51:58.111Z,1021.02
2018-05-04T08:52:58.081Z,1021.08
2018-05-04T08:53:58.106Z,1021.06
2018-05-04T08:54:58.027Z,1021.05
2018-05-04T08:55:58.002Z,1021.07
2018-05-04T08:56:58.498Z,1021.09
2018-05-04T08:57:57.951Z,1021.07
2018-05-04T08:58:57.920Z,1021.06
2018-05-04T08:59:57.896Z,1021.03
2018-05-04T09:00:57.872Z,1020.98
2018-05-04T09:01:57.884Z,1021.03
2018-05-04T09:02:57.821Z,1021.06
2018-05-04T09:03:57.790Z,1020.94
2018-05-04T09:04:57.801Z,1020.91
2018-05-04T09:05:57.789Z,1020.96
2018-05-04T09:06:57.723Z,1020.95
2018-05-04T09:07:57.699Z,1020.95
2018-05-04T09:08:57.717Z,1020.94
2018-05-04T09:09:57.657Z,1020.97
2018-05-04T09:10:57.620Z,1020.89
2018-05-04T09:11:57.583Z,1020.89
2018-05-04T09:12:57.568Z,1020.87
2018-05-04T09:13:57.567Z,1020.85
2018-05-04T09:14:57.509Z,1020.85
2018-05-04T09:15:57.528Z,1020.84
2018-05-04T09:16:57.452Z,1020.84
2018-05-04T09:17:57.426Z,1020.86
2018-05-04T09:18:57.412Z,1020.85
2018-05-04T09:19:57.378Z,1020.92
2018-05-04T09:20:57.388Z,1020.91
2018-05-04T09:21:57.328Z,1020.92
2018-05-04T09:22:57.299Z,1020.87
2018-05-04T09:23:57.276Z,1020.89
2018-05-04T09:24:57.252Z,1020.82
2018-05-04T09:25:57.266Z,1020.85
2018-05-04T09:26:57.222Z,1020.92
2018-05-04T09:27:57.181Z,1020.89
2018-05-04T09:28:57.146Z,1020.91
2018-05-04T09:29:57.130Z,1020.92
2018-05-04T09:30:57.153Z,1020.88
2018-05-04T09:31:57.073Z,1020.95
2018-05-04T09:32:57.044Z,1020.83
2018-05-04T09:33:57.014Z,1020.89
2018-05-04T09:34:56.993Z,1020.93
2018-05-04T09:35:57.008Z,1021.00
2018-05-04T09:36:56.998Z,1020.89
2018-05-04T09:37:56.916Z,1020.95
2018-05-04T09:38:56.891Z,1020.96
2018-05-04T09:39:56.864Z,1020.94
2018-05-04T09:40:56.842Z,1020.92
2018-05-04T09:41:56.868Z,1020.91
2018-05-04T09:42:56.815Z,1021.00
2018-05-04T09:43:56.797Z,1020.98
2018-05-04T09:44:56.742Z,1020.96
2018-05-04T09:45:56.713Z,1020.94
2018-05-04T09:46:56.739Z,1020.99
2018-05-04T09:47:56.659Z,1020.98
2018-05-04T09:48:56.686Z,1020.96
2018-05-04T09:49:56.617Z,1020.90
2018-05-04T09:50:56.588Z,1020.98
2018-05-04T09:51:56.604Z,1020.85
2018-05-04T09:52:56.549Z,1020.87
2018-05-04T09:53:56.509Z,1020.86
2018-05-04T09:54:56.529Z,1020.87
2018-05-04T09:55:56.483Z,1020.91
2018-05-04T09:56:56.501Z,1020.93
2018-05-04T09:57:56.409Z,1020.88
2018-05-04T09:58:56.428Z,1020.89
2018-05-04T09:59:56.365Z,1020.87
2018-05-04T10:00:56.335Z,1020.88
2018-05-04T10:01:56.307Z,1020.88
2018-05-04T10:02:56.950Z,1020.87
2018-05-04T10:03:56.291Z,1020.89
2018-05-04T10:04:56.236Z,1020.87
2018-05-04T10:05:56.207Z,1020.89
2018-05-04T10:06:56.196Z,1020.87
2018-05-04T10:07:56.203Z,1020.89
2018-05-04T10:08:56.134Z,1020.92
2018-05-04T10:09:56.117Z,1021.00
2018-05-04T10:10:56.085Z,1020.85
2018-05-04T10:11:56.061Z,1020.89
2018-05-04T10:12:56.075Z,1020.89
2018-05-04T10:13:56.008Z,1020.94
2018-05-04T10:14:55.983Z,1020.87
2018-05-04T10:15:56.042Z,1020.87
2018-05-04T10:16:55.963Z,1020.88
2018-05-04T10:17:55.913Z,1020.87
2018-05-04T10:18:55.885Z,1020.86
2018-05-04T10:19:55.898Z,1020.90
2018-05-04T10:20:55.834Z,1020.81
2018-05-04T10:21:55.882Z,1020.83
2018-05-04T10:22:55.784Z,1020.80
2018-05-04T10:23:55.754Z,1020.89
2018-05-04T10:24:55.775Z,1020.84
2018-05-04T10:25:55.706Z,1020.79
2018-05-04T10:26:55.765Z,1020.78
2018-05-04T10:27:55.660Z,1020.76
2018-05-04T10:28:55.628Z,1020.78
2018-05-04T10:29:55.607Z,1020.85
2018-05-04T10:30:55.611Z,1020.80
2018-05-04T10:31:55.590Z,1020.81
2018-05-04T10:32:55.531Z,1020.78
2018-05-04T10:33:55.510Z,1020.80
2018-05-04T10:34:55.551Z,1020.81
2018-05-04T10:35:55.469Z,1020.76
2018-05-04T10:36:55.440Z,1020.70
2018-05-04T10:37:55.408Z,1020.70
2018-05-04T10:38:55.487Z,1020.69
2018-05-04T10:39:55.406Z,1020.71
2018-05-04T10:40:55.337Z,1020.70
2018-05-04T10:41:55.309Z,1020.72
2018-05-04T10:42:55.328Z,1020.72
2018-05-04T10:43:55.261Z,1020.75
2018-05-04T10:44:55.267Z,1020.71
2018-05-04T10:45:55.246Z,1020.78
2018-05-04T10:46:55.189Z,1020.74
2018-05-04T10:47:55.159Z,1020.76
2018-05-04T10:48:55.139Z,1020.69
2018-05-04T10:49:55.115Z,1020.79
2018-05-04T10:50:55.141Z,1020.73
2018-05-04T10:51:55.063Z,1020.69
2018-05-04T10:52:55.035Z,1020.70
2018-05-04T10:53:55.016Z,1020.65
2018-05-04T10:54:55.000Z,1020.62
2018-05-04T10:55:55.013Z,1020.72
2018-05-04T10:56:54.933Z,1020.75
2018-05-04T10:57:54.945Z,1020.70
2018-05-04T10:58:54.885Z,1020.78
2018-05-04T10:59:54.865Z,1020.70
2018-05-04T11:00:54.841Z,1020.71
2018-05-04T11:01:54.865Z,1020.61
2018-05-04T11:02:54.786Z,1020.67
2018-05-04T11:03:54.785Z,1020.68
2018-05-04T11:04:54.737Z,1020.73
2018-05-04T11:05:54.715Z,1020.71
2018-05-04T11:06:54.729Z,1020.64
2018-05-04T11:07:54.665Z,1020.63
2018-05-04T11:08:54.674Z,1020.58
2018-05-04T11:09:54.664Z,1020.65
2018-05-04T11:10:54.589Z,1020.62
2018-05-04T11:11:54.639Z,1020.67
2018-05-04T11:12:54.551Z,1020.63
2018-05-04T11:13:54.565Z,1020.62
2018-05-04T11:14:54.490Z,1020.66
2018-05-04T11:15:54.464Z,1020.61
2018-05-04T11:16:54.440Z,1020.61
2018-05-04T11:17:54.421Z,1020.58
2018-05-04T11:18:54.435Z,1020.62
2018-05-04T11:19:54.408Z,1020.59
2018-05-04T11:20:54.352Z,1020.59
2018-05-04T11:21:54.323Z,1020.53
2018-05-04T11:22:54.298Z,1020.57
2018-05-04T11:23:54.275Z,1020.53
2018-05-04T11:24:54.303Z,1020.54
2018-05-04T11:25:54.222Z,1020.52
2018-05-04T11:26:54.278Z,1020.52
2018-05-04T11:27:54.185Z,1020.51
2018-05-04T11:28:54.148Z,1020.53
2018-05-04T11:29:54.167Z,1020.50
2018-05-04T11:30:54.187Z,1020.48
2018-05-04T11:31:54.110Z,1020.46
2018-05-04T11:32:54.060Z,1020.43
2018-05-04T11:33:54.028Z,1020.49
2018-05-04T11:34:54.004Z,1020.55
2018-05-04T11:35:54.018Z,1020.52
2018-05-04T11:36:54.004Z,1020.56
2018-05-04T11:37:53.941Z,1020.63
2018-05-04T11:38:53.964Z,1020.55
2018-05-04T11:39:53.884Z,1020.56
2018-05-04T11:40:53.868Z,1020.49
2018-05-04T11:41:53.878Z,1020.47
2018-05-04T11:42:53.809Z,1020.51
2018-05-04T11:43:53.824Z,1020.49
2018-05-04T11:44:53.760Z,1020.58
2018-05-04T11:45:53.745Z,1020.58
2018-05-04T11:46:53.751Z,1020.60
2018-05-04T11:47:53.692Z,1020.59
2018-05-04T11:48:53.730Z,1020.61
2018-05-04T11:49:53.648Z,1020.61
2018-05-04T11:50:53.633Z,1020.58
2018-05-04T11:51:53.604Z,1020.60
2018-05-04T11:52:53.572Z,1020.59
2018-05-04T11:53:53.607Z,1020.55
2018-05-04T11:54:53.539Z,1020.52
2018-05-04T11:55:53.495Z,1020.53
2018-05-04T11:56:53.476Z,1020.54
2018-05-04T11:57:53.454Z,1020.51
2018-05-04T11:58:53.473Z,1020.59
2018-05-04T11:59:53.410Z,1020.68
2018-05-04T12:00:53.445Z,1020.61
2018-05-04T12:01:53.359Z,1020.54
2018-05-04T12:02:53.332Z,1020.55
2018-05-04T12:03:53.319Z,1020.49
2018-05-04T12:04:53.290Z,1020.53